sensor_id;sensor_type;location;lat;lon;timestamp;temperature;humidity
54796;DHT22;40693;43.884;20.340;2022-07-06T00:01:06;589.30;2432.00
54796;DHT22;40693;43.884;20.340;2022-07-06T00:03:32;589.30;2432.00
54796;DHT22;40693;43.884;20.340;2022-07-06T00:05:58;589.30;2432.00
54796;DHT22;40693;43.884;20.340;2022-07-06T00:08:24;589.30;2432.00
54796;DHT22;40693;43.884;20.340;2022-07-06T00:10:49;589.30;2432.00
54796;DHT22;40693;43.884;20.340;2022-07-06T00:13:15;589.20;2432.00
54796;DHT22;40693;43.884;20.340;2022-07-06T00:15:41;589.20;2432.00
54796;DHT22;40693;43.884;20.340;2022-07-06T00:18:07;589.20;2432.00
54796;DHT22;40693;43.884;20.340;2022-07-06T00:20:33;589.20;2432.00
54796;DHT22;40693;43.884;20.340;2022-07-06T00:22:59;589.20;2432.00
54796;DHT22;40693;43.884;20.340;2022-07-06T00:25:24;589.10;2432.00
54796;DHT22;40693;43.884;20.340;2022-07-06T00:27:50;589.10;2432.00
54796;DHT22;40693;43.884;20.340;2022-07-06T00:30:16;589.10;2432.00
54796;DHT22;40693;43.884;20.340;2022-07-06T00:32:42;589.00;2432.00
54796;DHT22;40693;43.884;20.340;2022-07-06T00:35:08;589.10;2432.00
54796;DHT22;40693;43.884;20.340;2022-07-06T00:37:33;589.10;2432.00
54796;DHT22;40693;43.884;20.340;2022-07-06T00:39:59;589.00;2432.00
54796;DHT22;40693;43.884;20.340;2022-07-06T00:42:25;589.10;2432.00
54796;DHT22;40693;43.884;20.340;2022-07-06T00:44:51;589.10;2432.00
54796;DHT22;40693;43.884;20.340;2022-07-06T00:47:17;589.00;2432.00
54796;DHT22;40693;43.884;20.340;2022-07-06T00:49:43;589.00;2432.00
54796;DHT22;40693;43.884;20.340;2022-07-06T00:52:27;589.10;2432.00
54796;DHT22;40693;43.884;20.340;2022-07-06T00:54:54;589.00;2432.00
54796;DHT22;40693;43.884;20.340;2022-07-06T00:57:20;589.10;2432.00
54796;DHT22;40693;43.884;20.340;2022-07-06T00:59:47;589.10;2432.00
54796;DHT22;40693;43.884;20.340;2022-07-06T01:02:13;589.10;2432.00
54796;DHT22;40693;43.884;20.340;2022-07-06T01:04:38;589.10;2432.00
54796;DHT22;40693;43.884;20.340;2022-07-06T01:07:04;589.10;2432.00
54796;DHT22;40693;43.884;20.340;2022-07-06T01:09:30;589.10;2432.00
54796;DHT22;40693;43.884;20.340;2022-07-06T01:11:56;589.10;2432.00
54796;DHT22;40693;43.884;20.340;2022-07-06T01:14:22;589.10;2432.00
54796;DHT22;40693;43.884;20.340;2022-07-06T01:16:48;589.20;2432.00
54796;DHT22;40693;43.884;20.340;2022-07-06T01:19:14;589.00;2432.00
54796;DHT22;40693;43.884;20.340;2022-07-06T01:21:40;589.00;2432.00
54796;DHT22;40693;43.884;20.340;2022-07-06T01:24:06;589.00;2432.00
54796;DHT22;40693;43.884;20.340;2022-07-06T01:26:32;589.00;2432.00
54796;DHT22;40693;43.884;20.340;2022-07-06T01:28:58;589.00;2432.00
54796;DHT22;40693;43.884;20.340;2022-07-06T01:31:25;589.00;2432.00
54796;DHT22;40693;43.884;20.340;2022-07-06T01:33:54;589.10;2432.00
54796;DHT22;40693;43.884;20.340;2022-07-06T01:36:20;589.10;2432.00
54796;DHT22;40693;43.884;20.340;2022-07-06T01:41:16;588.90;2432.00
54796;DHT22;40693;43.884;20.340;2022-07-06T01:43:42;589.00;2432.00
54796;DHT22;40693;43.884;20.340;2022-07-06T01:46:08;588.80;2432.00
54796;DHT22;40693;43.884;20.340;2022-07-06T01:48:34;588.90;2432.00
54796;DHT22;40693;43.884;20.340;2022-07-06T01:51:00;588.90;2432.00
54796;DHT22;40693;43.884;20.340;2022-07-06T01:53:25;588.80;2432.00
54796;DHT22;40693;43.884;20.340;2022-07-06T01:55:51;588.80;2432.00
54796;DHT22;40693;43.884;20.340;2022-07-06T01:58:17;564.10;2432.00
54796;DHT22;40693;43.884;20.340;2022-07-06T02:00:43;564.10;2432.00
54796;DHT22;40693;43.884;20.340;2022-07-06T02:03:09;564.00;2432.00
54796;DHT22;40693;43.884;20.340;2022-07-06T02:05:34;564.00;2432.00
54796;DHT22;40693;43.884;20.340;2022-07-06T02:08:00;563.90;2432.00
54796;DHT22;40693;43.884;20.340;2022-07-06T02:10:26;563.90;2432.00
54796;DHT22;40693;43.884;20.340;2022-07-06T02:12:52;563.80;2432.00
54796;DHT22;40693;43.884;20.340;2022-07-06T02:15:17;563.80;2432.00
54796;DHT22;40693;43.884;20.340;2022-07-06T02:17:43;563.80;2432.00
54796;DHT22;40693;43.884;20.340;2022-07-06T02:20:09;563.80;2432.00
54796;DHT22;40693;43.884;20.340;2022-07-06T02:22:35;563.80;2432.00
54796;DHT22;40693;43.884;20.340;2022-07-06T02:25:02;563.70;2432.00
54796;DHT22;40693;43.884;20.340;2022-07-06T02:27:27;563.70;2432.00
54796;DHT22;40693;43.884;20.340;2022-07-06T02:29:53;563.60;2432.00
54796;DHT22;40693;43.884;20.340;2022-07-06T02:32:19;563.60;2432.00
54796;DHT22;40693;43.884;20.340;2022-07-06T02:34:44;563.50;2432.00
54796;DHT22;40693;43.884;20.340;2022-07-06T02:37:10;563.50;2432.00
54796;DHT22;40693;43.884;20.340;2022-07-06T02:39:36;563.50;2432.00
54796;DHT22;40693;43.884;20.340;2022-07-06T02:42:02;563.50;2432.00
54796;DHT22;40693;43.884;20.340;2022-07-06T02:44:28;563.60;2432.00
54796;DHT22;40693;43.884;20.340;2022-07-06T02:46:54;563.60;2432.00
54796;DHT22;40693;43.884;20.340;2022-07-06T02:49:19;563.60;2432.00
54796;DHT22;40693;43.884;20.340;2022-07-06T02:51:45;563.60;2432.00
54796;DHT22;40693;43.884;20.340;2022-07-06T02:54:11;563.70;2432.00
54796;DHT22;40693;43.884;20.340;2022-07-06T02:56:37;563.60;2432.00
54796;DHT22;40693;43.884;20.340;2022-07-06T02:59:03;563.40;2432.00
54796;DHT22;40693;43.884;20.340;2022-07-06T03:01:28;563.60;2432.00
54796;DHT22;40693;43.884;20.340;2022-07-06T03:03:54;563.60;2432.00
54796;DHT22;40693;43.884;20.340;2022-07-06T03:06:20;563.60;2432.00
54796;DHT22;40693;43.884;20.340;2022-07-06T03:08:46;563.60;2432.00
54796;DHT22;40693;43.884;20.340;2022-07-06T03:11:11;563.60;2432.00
54796;DHT22;40693;43.884;20.340;2022-07-06T03:13:37;563.60;2432.00
54796;DHT22;40693;43.884;20.340;2022-07-06T03:16:03;563.60;2432.00
54796;DHT22;40693;43.884;20.340;2022-07-06T03:18:29;563.60;2432.00
54796;DHT22;40693;43.884;20.340;2022-07-06T03:20:55;563.60;2432.00
54796;DHT22;40693;43.884;20.340;2022-07-06T03:23:20;563.60;2432.00
54796;DHT22;40693;43.884;20.340;2022-07-06T03:25:46;563.60;2432.00
54796;DHT22;40693;43.884;20.340;2022-07-06T03:28:12;563.60;2432.00
54796;DHT22;40693;43.884;20.340;2022-07-06T03:30:38;563.60;2432.00
54796;DHT22;40693;43.884;20.340;2022-07-06T03:33:04;563.60;2432.00
54796;DHT22;40693;43.884;20.340;2022-07-06T03:35:30;563.60;2432.00
54796;DHT22;40693;43.884;20.340;2022-07-06T03:37:55;563.60;2432.00
54796;DHT22;40693;43.884;20.340;2022-07-06T03:40:21;563.70;2432.00
54796;DHT22;40693;43.884;20.340;2022-07-06T03:42:47;563.60;2432.00
54796;DHT22;40693;43.884;20.340;2022-07-06T03:45:13;563.70;2432.00
54796;DHT22;40693;43.884;20.340;2022-07-06T03:47:38;563.70;2432.00
54796;DHT22;40693;43.884;20.340;2022-07-06T03:50:04;563.80;2432.00
54796;DHT22;40693;43.884;20.340;2022-07-06T03:52:31;563.90;2432.00
54796;DHT22;40693;43.884;20.340;2022-07-06T03:54:56;563.90;2432.00
54796;DHT22;40693;43.884;20.340;2022-07-06T03:57:22;564.00;2432.00
54796;DHT22;40693;43.884;20.340;2022-07-06T03:59:48;564.00;2432.00
54796;DHT22;40693;43.884;20.340;2022-07-06T04:02:13;564.10;2432.00
54796;DHT22;40693;43.884;20.340;2022-07-06T04:04:39;564.10;2432.00
54796;DHT22;40693;43.884;20.340;2022-07-06T04:07:05;564.10;2432.00
54796;DHT22;40693;43.884;20.340;2022-07-06T04:09:30;588.80;2432.00
54796;DHT22;40693;43.884;20.340;2022-07-06T04:11:56;588.80;2432.00
54796;DHT22;40693;43.884;20.340;2022-07-06T04:14:22;588.90;2432.00
54796;DHT22;40693;43.884;20.340;2022-07-06T04:16:48;588.90;2432.00
54796;DHT22;40693;43.884;20.340;2022-07-06T04:19:14;588.90;2432.00
54796;DHT22;40693;43.884;20.340;2022-07-06T04:21:40;588.90;2432.00
54796;DHT22;40693;43.884;20.340;2022-07-06T04:24:06;588.90;2432.00
54796;DHT22;40693;43.884;20.340;2022-07-06T04:26:32;588.90;2432.00
54796;DHT22;40693;43.884;20.340;2022-07-06T04:28:57;589.00;2432.00
54796;DHT22;40693;43.884;20.340;2022-07-06T04:31:23;589.00;2432.00
54796;DHT22;40693;43.884;20.340;2022-07-06T04:33:49;589.00;2432.00
54796;DHT22;40693;43.884;20.340;2022-07-06T04:36:14;589.00;2432.00
54796;DHT22;40693;43.884;20.340;2022-07-06T04:38:40;589.00;2432.00
54796;DHT22;40693;43.884;20.340;2022-07-06T04:41:06;589.00;2432.00
54796;DHT22;40693;43.884;20.340;2022-07-06T04:43:32;589.00;2432.00
54796;DHT22;40693;43.884;20.340;2022-07-06T04:45:58;589.10;2432.00
54796;DHT22;40693;43.884;20.340;2022-07-06T04:48:24;589.10;2432.00
54796;DHT22;40693;43.884;20.340;2022-07-06T04:50:50;589.20;2432.00
54796;DHT22;40693;43.884;20.340;2022-07-06T04:53:15;589.20;2432.00
54796;DHT22;40693;43.884;20.340;2022-07-06T04:55:41;589.20;2432.00
54796;DHT22;40693;43.884;20.340;2022-07-06T04:58:07;589.20;2432.00
54796;DHT22;40693;43.884;20.340;2022-07-06T05:00:33;589.30;2432.00
54796;DHT22;40693;43.884;20.340;2022-07-06T05:02:59;589.30;2432.00
54796;DHT22;40693;43.884;20.340;2022-07-06T05:05:25;589.40;2432.00
54796;DHT22;40693;43.884;20.340;2022-07-06T05:07:51;589.40;2432.00
54796;DHT22;40693;43.884;20.340;2022-07-06T05:10:17;589.50;2432.00
54796;DHT22;40693;43.884;20.340;2022-07-06T05:12:42;589.50;2432.00
54796;DHT22;40693;43.884;20.340;2022-07-06T05:15:08;589.60;2432.00
54796;DHT22;40693;43.884;20.340;2022-07-06T05:17:34;589.60;2432.00
54796;DHT22;40693;43.884;20.340;2022-07-06T05:20:03;589.60;2432.00
54796;DHT22;40693;43.884;20.340;2022-07-06T05:22:32;589.60;2432.00
54796;DHT22;40693;43.884;20.340;2022-07-06T05:24:57;589.60;2432.00
54796;DHT22;40693;43.884;20.340;2022-07-06T05:27:23;589.50;2432.00
54796;DHT22;40693;43.884;20.340;2022-07-06T05:29:49;589.50;2432.00
54796;DHT22;40693;43.884;20.340;2022-07-06T05:32:15;589.40;2432.00
54796;DHT22;40693;43.884;20.340;2022-07-06T05:34:42;589.50;2432.00
54796;DHT22;40693;43.884;20.340;2022-07-06T05:37:09;589.60;2432.00
54796;DHT22;40693;43.884;20.340;2022-07-06T05:39:34;589.60;2432.00
54796;DHT22;40693;43.884;20.340;2022-07-06T05:42:00;589.60;2432.00
54796;DHT22;40693;43.884;20.340;2022-07-06T05:44:26;589.70;2432.00
54796;DHT22;40693;43.884;20.340;2022-07-06T05:46:52;614.40;2432.00
54796;DHT22;40693;43.884;20.340;2022-07-06T05:49:37;614.40;2432.00
54796;DHT22;40693;43.884;20.340;2022-07-06T05:52:35;614.40;2432.00
54796;DHT22;40693;43.884;20.340;2022-07-06T05:55:01;614.50;2432.00
54796;DHT22;40693;43.884;20.340;2022-07-06T05:57:27;614.60;2432.00
54796;DHT22;40693;43.884;20.340;2022-07-06T05:59:56;614.60;2432.00
54796;DHT22;40693;43.884;20.340;2022-07-06T06:02:22;614.60;2432.00
54796;DHT22;40693;43.884;20.340;2022-07-06T06:04:48;614.60;2432.00
54796;DHT22;40693;43.884;20.340;2022-07-06T06:07:13;614.70;2432.00
54796;DHT22;40693;43.884;20.340;2022-07-06T06:09:39;614.70;2432.00
54796;DHT22;40693;43.884;20.340;2022-07-06T06:12:05;614.80;2432.00
54796;DHT22;40693;43.884;20.340;2022-07-06T06:14:31;614.80;2432.00
54796;DHT22;40693;43.884;20.340;2022-07-06T06:16:58;614.90;2432.00
54796;DHT22;40693;43.884;20.340;2022-07-06T06:19:23;614.90;2432.00
54796;DHT22;40693;43.884;20.340;2022-07-06T06:21:49;614.90;2432.00
54796;DHT22;40693;43.884;20.340;2022-07-06T06:24:17;615.00;2432.00
54796;DHT22;40693;43.884;20.340;2022-07-06T06:26:43;615.10;2432.00
54796;DHT22;40693;43.884;20.340;2022-07-06T06:29:09;614.90;2432.00
54796;DHT22;40693;43.884;20.340;2022-07-06T06:31:35;615.10;2432.00
54796;DHT22;40693;43.884;20.340;2022-07-06T06:34:00;615.00;2432.00
54796;DHT22;40693;43.884;20.340;2022-07-06T06:36:26;615.00;2432.00
54796;DHT22;40693;43.884;20.340;2022-07-06T06:38:52;615.00;2432.00
54796;DHT22;40693;43.884;20.340;2022-07-06T06:41:17;615.00;2432.00
54796;DHT22;40693;43.884;20.340;2022-07-06T06:43:46;614.90;2432.00
54796;DHT22;40693;43.884;20.340;2022-07-06T06:46:12;614.90;2432.00
54796;DHT22;40693;43.884;20.340;2022-07-06T06:48:37;615.00;2432.00
54796;DHT22;40693;43.884;20.340;2022-07-06T06:51:04;615.10;2432.00
54796;DHT22;40693;43.884;20.340;2022-07-06T06:53:30;615.10;2432.00
54796;DHT22;40693;43.884;20.340;2022-07-06T06:55:55;615.20;2432.00
54796;DHT22;40693;43.884;20.340;2022-07-06T06:58:21;615.30;2432.00
54796;DHT22;40693;43.884;20.340;2022-07-06T07:00:47;640.00;2432.00
54796;DHT22;40693;43.884;20.340;2022-07-06T07:03:13;640.20;2432.00
54796;DHT22;40693;43.884;20.340;2022-07-06T07:05:39;640.10;2432.00
54796;DHT22;40693;43.884;20.340;2022-07-06T07:08:05;640.10;2432.00
54796;DHT22;40693;43.884;20.340;2022-07-06T07:10:32;640.10;2329.60
54796;DHT22;40693;43.884;20.340;2022-07-06T07:12:58;640.30;2329.60
54796;DHT22;40693;43.884;20.340;2022-07-06T07:15:24;640.20;2304.00
54796;DHT22;40693;43.884;20.340;2022-07-06T07:17:49;640.30;2278.40
54796;DHT22;40693;43.884;20.340;2022-07-06T07:20:15;640.40;2227.20
54796;DHT22;40693;43.884;20.340;2022-07-06T07:22:41;640.50;2252.80
54796;DHT22;40693;43.884;20.340;2022-07-06T07:25:07;640.60;2252.80
54796;DHT22;40693;43.884;20.340;2022-07-06T07:27:33;640.70;2201.60
54796;DHT22;40693;43.884;20.340;2022-07-06T07:29:59;640.80;2201.60
54796;DHT22;40693;43.884;20.340;2022-07-06T07:32:25;640.90;2201.60
54796;DHT22;40693;43.884;20.340;2022-07-06T07:34:51;665.70;2201.60
54796;DHT22;40693;43.884;20.340;2022-07-06T07:37:16;665.80;2201.60
54796;DHT22;40693;43.884;20.340;2022-07-06T07:39:42;666.00;2201.60
54796;DHT22;40693;43.884;20.340;2022-07-06T07:42:08;666.00;2048.00
54796;DHT22;40693;43.884;20.340;2022-07-06T07:44:34;666.10;2048.00
54796;DHT22;40693;43.884;20.340;2022-07-06T07:46:59;666.10;2073.60
54796;DHT22;40693;43.884;20.340;2022-07-06T07:49:25;666.20;2073.60
54796;DHT22;40693;43.884;20.340;2022-07-06T07:51:51;666.40;2073.60
54796;DHT22;40693;43.884;20.340;2022-07-06T07:54:17;666.40;2022.40
54796;DHT22;40693;43.884;20.340;2022-07-06T07:56:43;666.50;1996.80
54796;DHT22;40693;43.884;20.340;2022-07-06T07:59:09;691.20;1971.20
54796;DHT22;40693;43.884;20.340;2022-07-06T08:01:35;691.30;1945.60
54796;DHT22;40693;43.884;20.340;2022-07-06T08:04:01;691.30;1945.60
54796;DHT22;40693;43.884;20.340;2022-07-06T08:06:27;691.30;1945.60
54796;DHT22;40693;43.884;20.340;2022-07-06T08:08:52;691.50;1996.80
54796;DHT22;40693;43.884;20.340;2022-07-06T08:11:18;691.60;1920.00
54796;DHT22;40693;43.884;20.340;2022-07-06T08:13:44;691.70;1945.60
54796;DHT22;40693;43.884;20.340;2022-07-06T08:16:10;691.70;1894.40
54796;DHT22;40693;43.884;20.340;2022-07-06T08:18:36;691.70;1945.60
54796;DHT22;40693;43.884;20.340;2022-07-06T08:21:03;691.90;1920.00
54796;DHT22;40693;43.884;20.340;2022-07-06T08:23:29;692.00;1868.80
54796;DHT22;40693;43.884;20.340;2022-07-06T08:25:55;692.00;1894.40
54796;DHT22;40693;43.884;20.340;2022-07-06T08:28:20;692.10;1868.80
54796;DHT22;40693;43.884;20.340;2022-07-06T08:30:46;716.80;1894.40
54796;DHT22;40693;43.884;20.340;2022-07-06T08:33:13;716.90;1868.80
54796;DHT22;40693;43.884;20.340;2022-07-06T08:35:39;716.90;1868.80
54796;DHT22;40693;43.884;20.340;2022-07-06T08:38:05;716.80;1868.80
54796;DHT22;40693;43.884;20.340;2022-07-06T08:40:33;716.80;1868.80
54796;DHT22;40693;43.884;20.340;2022-07-06T08:43:00;716.80;1817.60
54796;DHT22;40693;43.884;20.340;2022-07-06T08:45:27;716.80;1792.00
54796;DHT22;40693;43.884;20.340;2022-07-06T08:47:54;716.90;1766.40
54796;DHT22;40693;43.884;20.340;2022-07-06T08:50:21;717.10;1792.00
54796;DHT22;40693;43.884;20.340;2022-07-06T08:52:50;717.20;1740.80
54796;DHT22;40693;43.884;20.340;2022-07-06T08:55:17;717.30;1715.20
54796;DHT22;40693;43.884;20.340;2022-07-06T08:57:46;717.40;1766.40
54796;DHT22;40693;43.884;20.340;2022-07-06T09:00:12;717.30;1766.40
54796;DHT22;40693;43.884;20.340;2022-07-06T09:02:40;717.00;1740.80
54796;DHT22;40693;43.884;20.340;2022-07-06T09:05:07;717.20;1740.80
54796;DHT22;40693;43.884;20.340;2022-07-06T09:07:34;717.10;1766.40
54796;DHT22;40693;43.884;20.340;2022-07-06T09:10:00;717.00;1740.80
54796;DHT22;40693;43.884;20.340;2022-07-06T09:12:27;717.00;1740.80
54796;DHT22;40693;43.884;20.340;2022-07-06T09:14:57;716.90;1740.80
54796;DHT22;40693;43.884;20.340;2022-07-06T09:17:29;717.10;1740.80
54796;DHT22;40693;43.884;20.340;2022-07-06T09:19:56;717.10;1740.80
54796;DHT22;40693;43.884;20.340;2022-07-06T09:22:30;717.20;1766.40
54796;DHT22;40693;43.884;20.340;2022-07-06T09:25:10;717.30;1664.00
54796;DHT22;40693;43.884;20.340;2022-07-06T09:27:43;717.30;1664.00
54796;DHT22;40693;43.884;20.340;2022-07-06T09:30:14;717.30;1689.60
54796;DHT22;40693;43.884;20.340;2022-07-06T09:32:48;717.40;1689.60
54796;DHT22;40693;43.884;20.340;2022-07-06T09:35:35;717.50;1715.20
54796;DHT22;40693;43.884;20.340;2022-07-06T09:38:13;717.50;1612.80
54796;DHT22;40693;43.884;20.340;2022-07-06T09:40:41;717.50;1587.20
54796;DHT22;40693;43.884;20.340;2022-07-06T09:43:27;717.60;1612.80
54796;DHT22;40693;43.884;20.340;2022-07-06T09:45:54;717.70;1587.20
54796;DHT22;40693;43.884;20.340;2022-07-06T09:48:22;742.50;1612.80
54796;DHT22;40693;43.884;20.340;2022-07-06T09:50:50;742.80;1587.20
54796;DHT22;40693;43.884;20.340;2022-07-06T09:53:17;742.90;1561.60
54796;DHT22;40693;43.884;20.340;2022-07-06T09:55:44;743.20;1536.00
54796;DHT22;40693;43.884;20.340;2022-07-06T09:58:10;743.30;1484.80
54796;DHT22;40693;43.884;20.340;2022-07-06T10:00:36;768.00;1459.20
54796;DHT22;40693;43.884;20.340;2022-07-06T10:03:02;768.10;1484.80
54796;DHT22;40693;43.884;20.340;2022-07-06T10:05:28;768.10;1459.20
54796;DHT22;40693;43.884;20.340;2022-07-06T10:07:59;768.10;1459.20
54796;DHT22;40693;43.884;20.340;2022-07-06T10:10:27;743.20;1484.80
54796;DHT22;40693;43.884;20.340;2022-07-06T10:12:55;742.90;1510.40
54796;DHT22;40693;43.884;20.340;2022-07-06T10:15:25;743.00;1510.40
54796;DHT22;40693;43.884;20.340;2022-07-06T10:17:51;743.20;1484.80
54796;DHT22;40693;43.884;20.340;2022-07-06T10:20:21;768.10;1484.80
54796;DHT22;40693;43.884;20.340;2022-07-06T10:22:50;768.20;1484.80
54796;DHT22;40693;43.884;20.340;2022-07-06T10:25:17;768.40;1484.80
54796;DHT22;40693;43.884;20.340;2022-07-06T10:27:45;768.60;1484.80
54796;DHT22;40693;43.884;20.340;2022-07-06T10:30:11;768.90;1484.80
54796;DHT22;40693;43.884;20.340;2022-07-06T10:32:39;768.90;1433.60
54796;DHT22;40693;43.884;20.340;2022-07-06T10:35:06;768.90;1408.00
54796;DHT22;40693;43.884;20.340;2022-07-06T10:37:33;768.90;1408.00
54796;DHT22;40693;43.884;20.340;2022-07-06T10:39:59;768.90;1382.40
54796;DHT22;40693;43.884;20.340;2022-07-06T10:42:48;768.90;1356.80
54796;DHT22;40693;43.884;20.340;2022-07-06T10:53:13;794.00;1382.40
54796;DHT22;40693;43.884;20.340;2022-07-06T10:55:42;794.00;1382.40
54796;DHT22;40693;43.884;20.340;2022-07-06T10:58:08;794.00;1382.40
54796;DHT22;40693;43.884;20.340;2022-07-06T11:00:55;794.00;1356.80
54796;DHT22;40693;43.884;20.340;2022-07-06T11:14:01;794.20;1331.20
54796;DHT22;40693;43.884;20.340;2022-07-06T11:17:11;794.10;1305.60
54796;DHT22;40693;43.884;20.340;2022-07-06T11:19:24;794.30;1331.20
54796;DHT22;40693;43.884;20.340;2022-07-06T11:22:12;794.50;1280.00
54796;DHT22;40693;43.884;20.340;2022-07-06T11:24:40;819.30;1305.60
54796;DHT22;40693;43.884;20.340;2022-07-06T11:27:06;819.50;1305.60
54796;DHT22;40693;43.884;20.340;2022-07-06T11:29:33;819.50;1305.60
54796;DHT22;40693;43.884;20.340;2022-07-06T11:32:05;819.60;1356.80
54796;DHT22;40693;43.884;20.340;2022-07-06T11:34:35;819.60;1280.00
54796;DHT22;40693;43.884;20.340;2022-07-06T11:37:04;819.60;1280.00
54796;DHT22;40693;43.884;20.340;2022-07-06T11:39:31;819.60;1228.80
54796;DHT22;40693;43.884;20.340;2022-07-06T11:41:57;819.50;1254.40
54796;DHT22;40693;43.884;20.340;2022-07-06T11:44:23;819.40;1228.80
54796;DHT22;40693;43.884;20.340;2022-07-06T11:46:50;819.30;1254.40
54796;DHT22;40693;43.884;20.340;2022-07-06T11:49:17;819.30;1228.80
54796;DHT22;40693;43.884;20.340;2022-07-06T11:51:44;819.40;1228.80
54796;DHT22;40693;43.884;20.340;2022-07-06T11:54:14;819.50;1228.80
54796;DHT22;40693;43.884;20.340;2022-07-06T11:56:58;819.60;1280.00
54796;DHT22;40693;43.884;20.340;2022-07-06T11:59:31;819.70;1254.40
54796;DHT22;40693;43.884;20.340;2022-07-06T12:02:04;819.80;1203.20
54796;DHT22;40693;43.884;20.340;2022-07-06T12:04:32;820.00;1177.60
54796;DHT22;40693;43.884;20.340;2022-07-06T12:07:06;820.10;1152.00
54796;DHT22;40693;43.884;20.340;2022-07-06T12:09:38;820.10;1100.80
54796;DHT22;40693;43.884;20.340;2022-07-06T12:12:04;820.10;1100.80
54796;DHT22;40693;43.884;20.340;2022-07-06T12:14:34;820.00;1126.40
54796;DHT22;40693;43.884;20.340;2022-07-06T12:17:05;820.10;1126.40
54796;DHT22;40693;43.884;20.340;2022-07-06T12:19:31;820.10;1126.40
54796;DHT22;40693;43.884;20.340;2022-07-06T12:21:57;820.10;1177.60
54796;DHT22;40693;43.884;20.340;2022-07-06T12:24:25;844.80;1177.60
54796;DHT22;40693;43.884;20.340;2022-07-06T12:26:54;844.90;1152.00
54796;DHT22;40693;43.884;20.340;2022-07-06T12:29:20;844.90;1152.00
54796;DHT22;40693;43.884;20.340;2022-07-06T12:31:51;844.90;1203.20
54796;DHT22;40693;43.884;20.340;2022-07-06T12:34:26;844.90;1152.00
54796;DHT22;40693;43.884;20.340;2022-07-06T12:39:20;844.90;1203.20
54796;DHT22;40693;43.884;20.340;2022-07-06T12:41:56;844.90;1228.80
54796;DHT22;40693;43.884;20.340;2022-07-06T12:44:26;844.90;1228.80
54796;DHT22;40693;43.884;20.340;2022-07-06T12:47:06;845.20;1254.40
54796;DHT22;40693;43.884;20.340;2022-07-06T12:49:33;845.10;1203.20
54796;DHT22;40693;43.884;20.340;2022-07-06T12:52:04;844.90;1203.20
54796;DHT22;40693;43.884;20.340;2022-07-06T12:57:22;844.90;1203.20
54796;DHT22;40693;43.884;20.340;2022-07-06T13:02:33;844.80;1177.60
54796;DHT22;40693;43.884;20.340;2022-07-06T13:05:06;844.90;1203.20
54796;DHT22;40693;43.884;20.340;2022-07-06T13:07:34;844.80;1203.20
54796;DHT22;40693;43.884;20.340;2022-07-06T13:10:06;844.90;1177.60
54796;DHT22;40693;43.884;20.340;2022-07-06T13:12:32;844.90;1203.20
54796;DHT22;40693;43.884;20.340;2022-07-06T13:14:58;844.90;1177.60
54796;DHT22;40693;43.884;20.340;2022-07-06T13:17:24;844.90;1203.20
54796;DHT22;40693;43.884;20.340;2022-07-06T13:19:49;845.10;1203.20
54796;DHT22;40693;43.884;20.340;2022-07-06T13:22:15;845.20;1203.20
54796;DHT22;40693;43.884;20.340;2022-07-06T13:24:41;845.20;1177.60
54796;DHT22;40693;43.884;20.340;2022-07-06T13:27:08;845.20;1177.60
54796;DHT22;40693;43.884;20.340;2022-07-06T13:29:33;845.40;1177.60
54796;DHT22;40693;43.884;20.340;2022-07-06T13:31:59;845.20;1152.00
54796;DHT22;40693;43.884;20.340;2022-07-06T13:34:25;845.10;1203.20
54796;DHT22;40693;43.884;20.340;2022-07-06T13:36:51;845.20;1203.20
54796;DHT22;40693;43.884;20.340;2022-07-06T13:39:18;845.20;1177.60
54796;DHT22;40693;43.884;20.340;2022-07-06T13:41:44;845.30;1177.60
54796;DHT22;40693;43.884;20.340;2022-07-06T13:44:10;845.20;1203.20
54796;DHT22;40693;43.884;20.340;2022-07-06T13:46:38;845.20;1177.60
54796;DHT22;40693;43.884;20.340;2022-07-06T13:49:05;845.10;1177.60
54796;DHT22;40693;43.884;20.340;2022-07-06T13:51:31;845.10;1203.20
54796;DHT22;40693;43.884;20.340;2022-07-06T13:53:59;845.20;1228.80
54796;DHT22;40693;43.884;20.340;2022-07-06T13:56:25;845.20;1228.80
54796;DHT22;40693;43.884;20.340;2022-07-06T13:58:51;845.20;1203.20
54796;DHT22;40693;43.884;20.340;2022-07-06T14:01:17;845.20;1203.20
54796;DHT22;40693;43.884;20.340;2022-07-06T14:03:43;845.20;1177.60
54796;DHT22;40693;43.884;20.340;2022-07-06T14:06:09;845.20;1203.20
54796;DHT22;40693;43.884;20.340;2022-07-06T14:08:35;845.00;1203.20
54796;DHT22;40693;43.884;20.340;2022-07-06T14:11:03;845.00;1203.20
54796;DHT22;40693;43.884;20.340;2022-07-06T14:13:29;844.90;1228.80
54796;DHT22;40693;43.884;20.340;2022-07-06T14:15:54;844.90;1228.80
54796;DHT22;40693;43.884;20.340;2022-07-06T14:18:21;844.80;1228.80
54796;DHT22;40693;43.884;20.340;2022-07-06T14:20:48;820.10;1228.80
54796;DHT22;40693;43.884;20.340;2022-07-06T14:23:14;844.80;1254.40
54796;DHT22;40693;43.884;20.340;2022-07-06T14:25:41;844.90;1254.40
54796;DHT22;40693;43.884;20.340;2022-07-06T14:28:07;844.90;1228.80
54796;DHT22;40693;43.884;20.340;2022-07-06T14:30:34;844.80;1228.80
54796;DHT22;40693;43.884;20.340;2022-07-06T14:33:03;819.90;1203.20
54796;DHT22;40693;43.884;20.340;2022-07-06T14:35:35;820.00;1203.20
54796;DHT22;40693;43.884;20.340;2022-07-06T14:38:02;820.00;1228.80
54796;DHT22;40693;43.884;20.340;2022-07-06T14:40:28;820.10;1203.20
54796;DHT22;40693;43.884;20.340;2022-07-06T14:42:54;819.90;1203.20
54796;DHT22;40693;43.884;20.340;2022-07-06T14:45:19;819.90;1228.80
54796;DHT22;40693;43.884;20.340;2022-07-06T14:47:45;820.00;1177.60
54796;DHT22;40693;43.884;20.340;2022-07-06T14:50:11;819.80;1177.60
54796;DHT22;40693;43.884;20.340;2022-07-06T14:52:37;819.60;1203.20
54796;DHT22;40693;43.884;20.340;2022-07-06T14:55:03;819.80;1203.20
54796;DHT22;40693;43.884;20.340;2022-07-06T14:57:29;819.80;1177.60
54796;DHT22;40693;43.884;20.340;2022-07-06T14:59:55;819.80;1203.20
54796;DHT22;40693;43.884;20.340;2022-07-06T15:02:20;819.80;1228.80
54796;DHT22;40693;43.884;20.340;2022-07-06T15:04:46;819.80;1177.60